createdAt,value
2023-05-10T00:01:30.217Z,6.10
2023-05-10T00:06:47.503Z,6.93
2023-05-10T00:09:15.199Z,7.05
2023-05-10T00:11:41.847Z,7.70
2023-05-10T00:14:08.540Z,8.00
2023-05-10T00:16:35.264Z,8.95
2023-05-10T00:19:02.077Z,7.18
2023-05-10T00:21:29.473Z,7.75
2023-05-10T00:23:56.267Z,7.10
2023-05-10T00:26:23.019Z,7.80
2023-05-10T00:28:49.755Z,7.57
2023-05-10T00:31:16.797Z,7.43
2023-05-10T00:33:43.539Z,7.45
2023-05-10T00:36:10.178Z,7.25
2023-05-10T00:38:36.857Z,7.22
2023-05-10T00:41:03.959Z,7.03
2023-05-10T00:43:31.106Z,7.05
2023-05-10T00:45:58.399Z,7.07
2023-05-10T00:48:25.563Z,7.18
2023-05-10T00:50:52.950Z,7.10
2023-05-10T00:53:20.072Z,6.53
2023-05-10T00:55:46.851Z,7.57
2023-05-10T00:58:14.034Z,6.82
2023-05-10T01:00:43.745Z,7.38
2023-05-10T01:03:12.541Z,7.32
2023-05-10T01:05:39.807Z,7.72
2023-05-10T01:08:08.047Z,8.10
2023-05-10T01:10:34.786Z,7.88
2023-05-10T01:13:01.886Z,8.20
2023-05-10T01:15:28.827Z,7.50
2023-05-10T01:17:56.252Z,7.40
2023-05-10T01:20:23.270Z,8.07
2023-05-10T01:23:17.686Z,8.18
2023-05-10T01:26:21.869Z,7.55
2023-05-10T01:29:07.011Z,7.85
2023-05-10T01:32:10.020Z,7.95
2023-05-10T01:34:59.870Z,6.72
2023-05-10T01:37:38.955Z,7.57
2023-05-10T01:40:35.165Z,8.03
2023-05-10T01:43:08.989Z,7.15
2023-05-10T01:45:46.689Z,7.22
2023-05-10T01:48:15.183Z,7.70
2023-05-10T01:50:46.488Z,6.55
2023-05-10T01:53:18.232Z,6.65
2023-05-10T01:55:50.727Z,6.25
2023-05-10T01:58:29.678Z,6.35
2023-05-10T02:00:59.405Z,6.40
2023-05-10T02:03:28.426Z,6.25
2023-05-10T02:05:57.343Z,6.97
2023-05-10T02:08:25.083Z,6.85
2023-05-10T02:10:55.879Z,6.88
2023-05-10T02:13:25.354Z,6.80
2023-05-10T02:15:54.244Z,6.32
2023-05-10T02:18:23.332Z,6.95
2023-05-10T02:20:51.133Z,7.07
2023-05-10T02:23:19.375Z,6.85
2023-05-10T02:25:47.653Z,6.60
2023-05-10T02:28:15.866Z,6.30
2023-05-10T02:30:43.535Z,6.03
2023-05-10T02:33:10.979Z,6.10
2023-05-10T02:35:39.536Z,6.35
2023-05-10T02:38:08.427Z,6.55
2023-05-10T02:40:37.816Z,7.25
2023-05-10T02:43:06.546Z,7.22
2023-05-10T02:45:36.771Z,6.85
2023-05-10T02:48:04.225Z,6.32
2023-05-10T02:50:33.836Z,6.40
2023-05-10T02:53:12.690Z,6.85
2023-05-10T02:55:43.248Z,6.43
2023-05-10T02:58:11.574Z,6.65
2023-05-10T03:00:38.372Z,6.07
2023-05-10T03:03:05.177Z,6.03
2023-05-10T03:05:32.154Z,5.82
2023-05-10T03:07:59.056Z,7.00
2023-05-10T03:10:30.291Z,5.47
2023-05-10T03:13:37.183Z,5.15
2023-05-10T03:16:32.979Z,6.28
2023-05-10T03:19:06.662Z,5.68
2023-05-10T03:21:34.213Z,5.80
2023-05-10T03:24:09.736Z,6.10
2023-05-10T03:26:39.014Z,6.20
2023-05-10T03:29:07.555Z,5.82
2023-05-10T03:31:34.506Z,6.60
2023-05-10T03:34:01.254Z,5.80
2023-05-10T03:36:28.042Z,6.15
2023-05-10T03:38:54.782Z,6.63
2023-05-10T03:41:21.785Z,6.90
2023-05-10T03:43:49.975Z,6.38
2023-05-10T03:46:16.717Z,6.72
2023-05-10T03:48:43.916Z,5.78
2023-05-10T03:51:10.766Z,6.35
2023-05-10T03:53:37.453Z,6.97
2023-05-10T03:56:06.009Z,6.53
2023-05-10T03:58:34.660Z,7.07
2023-05-10T04:01:01.377Z,7.00
2023-05-10T04:03:28.178Z,7.07
2023-05-10T04:06:02.774Z,7.72
2023-05-10T04:08:30.077Z,7.57
2023-05-10T04:11:09.198Z,7.20
2023-05-10T04:13:36.173Z,6.83
2023-05-10T04:16:03.111Z,7.35
2023-05-10T04:18:29.971Z,6.97
2023-05-10T04:20:57.024Z,7.28
2023-05-10T04:23:23.772Z,7.30
2023-05-10T04:25:50.553Z,7.25
2023-05-10T04:28:17.749Z,7.80
2023-05-10T04:30:44.477Z,7.60
2023-05-10T04:33:11.231Z,7.55
2023-05-10T04:35:38.023Z,7.35
2023-05-10T04:38:04.782Z,7.10
2023-05-10T04:40:31.520Z,7.72
2023-05-10T04:42:58.260Z,7.55
2023-05-10T04:45:24.998Z,7.90
2023-05-10T04:47:51.992Z,8.70
2023-05-10T04:50:18.853Z,6.90
2023-05-10T04:52:46.145Z,6.97
2023-05-10T04:55:12.826Z,6.53
2023-05-10T04:57:39.527Z,7.00
2023-05-10T05:00:06.926Z,7.50
2023-05-10T05:02:33.652Z,6.88
2023-05-10T05:05:00.647Z,7.60
2023-05-10T05:07:27.342Z,6.95
2023-05-10T05:09:54.089Z,7.43
2023-05-10T05:12:21.237Z,6.82
2023-05-10T05:14:48.537Z,7.63
2023-05-10T05:17:15.219Z,6.60
2023-05-10T05:19:41.933Z,6.60
2023-05-10T05:22:09.746Z,6.30
2023-05-10T05:24:39.258Z,7.03
2023-05-10T05:27:07.053Z,7.45
2023-05-10T05:29:34.134Z,7.57
2023-05-10T05:32:01.379Z,6.85
2023-05-10T05:34:29.815Z,6.80
2023-05-10T05:37:03.593Z,7.53
2023-05-10T05:39:32.560Z,7.50
2023-05-10T05:41:59.489Z,7.05
2023-05-10T05:44:26.695Z,6.50
2023-05-10T05:46:53.562Z,7.68
2023-05-10T05:49:24.029Z,6.55
2023-05-10T05:51:57.708Z,7.10
2023-05-10T05:54:28.314Z,6.95
2023-05-10T05:57:01.048Z,5.80
2023-05-10T05:59:29.207Z,5.55
2023-05-10T06:01:56.044Z,6.82
2023-05-10T06:04:22.920Z,6.10
2023-05-10T06:06:49.862Z,5.82
2023-05-10T06:09:17.038Z,6.30
2023-05-10T06:11:44.663Z,6.57
2023-05-10T06:14:11.658Z,6.63
2023-05-10T06:16:38.500Z,6.25
2023-05-10T06:19:06.458Z,6.20
2023-05-10T06:21:33.262Z,5.70
2023-05-10T06:24:01.128Z,5.15
2023-05-10T06:26:27.867Z,5.15
2023-05-10T06:28:55.732Z,5.00
2023-05-10T06:31:22.489Z,6.20
2023-05-10T06:33:49.267Z,4.80
2023-05-10T06:36:17.232Z,4.50
2023-05-10T06:38:43.974Z,4.40
2023-05-10T06:41:10.821Z,5.18
2023-05-10T06:43:41.305Z,3.53
2023-05-10T06:46:08.485Z,4.10
2023-05-10T06:48:35.961Z,4.25
2023-05-10T06:51:03.350Z,4.28
2023-05-10T06:53:30.155Z,3.97
2023-05-10T06:55:57.358Z,3.85
2023-05-10T06:58:24.413Z,3.28
2023-05-10T07:00:51.578Z,3.30
2023-05-10T07:03:18.467Z,3.22
2023-05-10T07:05:45.540Z,3.40
2023-05-10T07:08:12.288Z,4.60
2023-05-10T07:10:39.028Z,3.55
2023-05-10T07:13:05.830Z,3.90
2023-05-10T07:15:32.967Z,3.63
2023-05-10T07:17:59.875Z,3.22
2023-05-10T07:20:26.697Z,3.33
2023-05-10T07:22:53.409Z,2.78
2023-05-10T07:25:21.898Z,3.25
2023-05-10T07:27:49.663Z,3.30
2023-05-10T07:30:16.549Z,3.00
2023-05-10T07:32:43.998Z,2.92
2023-05-10T07:35:10.804Z,3.13
2023-05-10T07:37:37.518Z,2.70
2023-05-10T07:40:04.766Z,2.97
2023-05-10T07:42:31.474Z,2.58
2023-05-10T07:44:59.373Z,2.72
2023-05-10T07:47:26.153Z,2.80
2023-05-10T07:49:53.032Z,3.10
2023-05-10T07:52:22.419Z,2.63
2023-05-10T07:54:50.529Z,2.80
2023-05-10T07:57:19.205Z,2.90
2023-05-10T07:59:46.444Z,2.55
2023-05-10T08:02:13.205Z,2.33
2023-05-10T08:04:40.051Z,2.33
2023-05-10T08:07:06.793Z,2.40
2023-05-10T08:09:33.448Z,2.03
2023-05-10T08:12:01.156Z,2.30
2023-05-10T08:14:30.522Z,1.95
2023-05-10T08:16:58.573Z,1.80
2023-05-10T08:19:26.722Z,1.98
2023-05-10T08:21:55.399Z,1.95
2023-05-10T08:24:23.509Z,2.20
2023-05-10T08:26:51.268Z,2.10
2023-05-10T08:29:18.126Z,2.42
2023-05-10T08:31:46.968Z,2.20
2023-05-10T08:34:17.360Z,2.10
2023-05-10T08:36:45.080Z,2.20
2023-05-10T08:39:19.481Z,2.20
2023-05-10T08:42:00.315Z,2.08
2023-05-10T08:44:27.284Z,2.35
2023-05-10T08:46:55.515Z,1.92
2023-05-10T08:51:58.145Z,2.10
2023-05-10T08:54:28.235Z,2.05
2023-05-10T08:56:55.117Z,1.90
2023-05-10T08:59:22.120Z,1.85
2023-05-10T09:01:52.515Z,2.08
2023-05-10T09:04:20.536Z,1.90
2023-05-10T09:06:49.046Z,2.20
2023-05-10T09:09:19.358Z,2.05
2023-05-10T09:11:46.504Z,2.03
2023-05-10T09:14:15.948Z,2.40
2023-05-10T09:16:48.987Z,2.08
2023-05-10T09:19:15.966Z,2.30
2023-05-10T09:21:42.775Z,2.22
2023-05-10T09:24:10.145Z,2.20
2023-05-10T09:26:47.530Z,2.60
2023-05-10T09:29:17.194Z,2.00
2023-05-10T09:31:52.680Z,2.47
2023-05-10T09:34:22.212Z,2.33
2023-05-10T09:36:58.048Z,2.08
2023-05-10T09:39:34.812Z,2.53
2023-05-10T09:42:04.980Z,2.50
2023-05-10T09:44:33.638Z,2.17
2023-05-10T09:47:02.136Z,2.47
2023-05-10T09:49:29.621Z,2.33
2023-05-10T09:52:07.546Z,2.30
2023-05-10T09:54:35.117Z,2.35
2023-05-10T09:57:02.481Z,2.20
2023-05-10T09:59:30.260Z,2.72
2023-05-10T10:01:59.218Z,2.28
2023-05-10T10:04:26.640Z,2.33
2023-05-10T10:07:01.998Z,2.53
2023-05-10T10:09:29.286Z,2.50
2023-05-10T10:11:58.901Z,2.13
2023-05-10T10:17:06.826Z,2.38
2023-05-10T10:19:38.786Z,2.30
2023-05-10T10:22:06.163Z,2.30
2023-05-10T10:24:32.933Z,2.22
2023-05-10T10:27:16.024Z,2.20
2023-05-10T10:30:22.612Z,2.25
2023-05-10T10:33:28.746Z,2.22
2023-05-10T10:35:59.016Z,2.60
2023-05-10T10:38:26.001Z,2.85
2023-05-10T10:41:29.496Z,2.30
2023-05-10T10:44:27.869Z,2.78
2023-05-10T10:47:31.126Z,2.40
2023-05-10T10:50:07.226Z,2.30
2023-05-10T10:52:41.029Z,2.33
2023-05-10T10:55:10.722Z,2.10
2023-05-10T11:00:20.276Z,2.90
2023-05-10T11:02:52.534Z,2.42
2023-05-10T11:05:37.657Z,1.70
2023-05-10T11:08:35.123Z,2.45
2023-05-10T11:11:08.356Z,2.70
2023-05-10T11:13:41.022Z,2.95
2023-05-10T11:16:21.342Z,2.30
2023-05-10T11:19:09.325Z,2.65
2023-05-10T11:21:49.800Z,2.60
2023-05-10T11:24:24.219Z,3.13
2023-05-10T11:26:54.740Z,2.45
2023-05-10T11:29:23.066Z,2.40
2023-05-10T11:31:50.728Z,2.38
2023-05-10T11:34:34.969Z,2.65
2023-05-10T11:37:02.029Z,3.95
2023-05-10T11:39:31.345Z,3.22
2023-05-10T11:42:06.791Z,3.45
2023-05-10T11:44:34.129Z,2.90
2023-05-10T11:47:01.963Z,2.85
2023-05-10T11:49:28.895Z,2.58
2023-05-10T11:52:09.260Z,3.10
2023-05-10T11:54:36.420Z,2.42
2023-05-10T11:57:04.801Z,3.05
2023-05-10T11:59:31.524Z,2.80
2023-05-10T12:01:58.633Z,3.20
2023-05-10T12:04:26.005Z,2.65
2023-05-10T12:06:53.447Z,2.65
2023-05-10T12:09:31.459Z,2.47
2023-05-10T12:12:03.547Z,2.65
2023-05-10T12:14:36.309Z,2.70
2023-05-10T12:17:03.062Z,3.70
2023-05-10T12:19:37.738Z,2.60
2023-05-10T12:22:06.852Z,2.65
2023-05-10T12:24:39.313Z,2.60
2023-05-10T12:27:09.356Z,2.80
2023-05-10T12:29:39.002Z,2.88
2023-05-10T12:32:06.635Z,3.40
2023-05-10T12:34:39.976Z,2.75
2023-05-10T12:37:08.186Z,3.22
2023-05-10T12:39:45.875Z,2.90
2023-05-10T12:42:13.014Z,2.53
2023-05-10T12:44:40.309Z,3.97
2023-05-10T12:47:07.272Z,2.92
2023-05-10T12:49:35.343Z,2.70
2023-05-10T12:52:02.260Z,2.45
2023-05-10T12:54:33.107Z,2.78
2023-05-10T12:56:59.885Z,2.42
2023-05-10T12:59:26.589Z,2.40
2023-05-10T13:01:54.072Z,3.08
2023-05-10T13:04:22.040Z,3.00
2023-05-10T13:06:49.193Z,2.45
2023-05-10T13:09:17.320Z,2.58
2023-05-10T13:11:44.207Z,3.88
2023-05-10T13:14:11.301Z,2.80
2023-05-10T13:16:38.653Z,2.38
2023-05-10T13:19:05.994Z,2.90
2023-05-10T13:21:33.047Z,2.30
2023-05-10T13:23:59.904Z,2.20
2023-05-10T13:26:27.798Z,2.17
2023-05-10T13:28:56.643Z,2.78
2023-05-10T13:31:24.695Z,2.30
2023-05-10T13:33:53.099Z,3.00
2023-05-10T13:36:19.989Z,2.65
2023-05-10T13:38:47.399Z,2.50
2023-05-10T13:41:15.136Z,2.75
2023-05-10T13:43:44.947Z,2.65
2023-05-10T13:46:11.857Z,2.83
2023-05-10T13:48:39.794Z,3.03
2023-05-10T13:51:06.570Z,2.50
2023-05-10T13:53:33.632Z,2.45
2023-05-10T13:56:01.609Z,2.45
2023-05-10T13:58:32.226Z,2.92
2023-05-10T14:00:59.185Z,2.63
2023-05-10T14:03:26.109Z,2.30
2023-05-10T14:05:52.967Z,2.80
2023-05-10T14:08:21.299Z,2.95
2023-05-10T14:10:49.877Z,4.43
2023-05-10T14:13:16.773Z,2.90
2023-05-10T14:15:43.501Z,2.42
2023-05-10T14:18:10.371Z,2.33
2023-05-10T14:20:37.858Z,2.50
2023-05-10T14:23:04.668Z,2.40
2023-05-10T14:25:31.964Z,2.13
2023-05-10T14:27:58.848Z,2.55
2023-05-10T14:30:25.644Z,2.70
2023-05-10T14:32:53.910Z,2.58
2023-05-10T14:35:21.779Z,2.40
2023-05-10T14:37:49.390Z,2.72
2023-05-10T14:40:18.459Z,2.60
2023-05-10T14:42:45.378Z,2.45
2023-05-10T14:45:13.123Z,2.72
2023-05-10T14:47:40.263Z,2.40
2023-05-10T14:50:09.063Z,2.50
2023-05-10T14:52:36.274Z,2.30
2023-05-10T14:55:05.494Z,2.53
2023-05-10T14:57:33.421Z,2.78
2023-05-10T15:00:01.381Z,2.65
2023-05-10T15:02:28.786Z,2.60
2023-05-10T15:04:56.402Z,2.22
2023-05-10T15:07:23.784Z,2.72
2023-05-10T15:09:52.960Z,2.55
2023-05-10T15:12:20.245Z,2.50
2023-05-10T15:14:47.487Z,2.30
2023-05-10T15:17:14.379Z,2.42
2023-05-10T15:19:42.659Z,2.08
2023-05-10T15:22:09.695Z,2.70
2023-05-10T15:24:36.865Z,3.03
2023-05-10T15:27:04.211Z,3.28
2023-05-10T15:29:32.566Z,2.97
2023-05-10T15:32:00.464Z,2.83
2023-05-10T15:34:28.245Z,2.70
2023-05-10T15:36:56.370Z,2.90
2023-05-10T15:39:24.246Z,2.80
2023-05-10T15:41:51.051Z,2.40
2023-05-10T15:44:17.970Z,2.60
2023-05-10T15:46:45.439Z,3.05
2023-05-10T15:49:13.597Z,2.40
2023-05-10T15:51:41.102Z,2.33
2023-05-10T15:54:08.559Z,2.80
2023-05-10T15:56:36.016Z,3.05
2023-05-10T15:59:04.010Z,2.35
2023-05-10T16:01:32.722Z,2.78
2023-05-10T16:03:59.675Z,2.63
2023-05-10T16:06:27.320Z,3.08
2023-05-10T16:08:54.829Z,2.55
2023-05-10T16:11:22.129Z,2.70
2023-05-10T16:13:52.982Z,2.45
2023-05-10T16:16:20.422Z,3.10
2023-05-10T16:18:47.658Z,2.40
2023-05-10T16:21:15.301Z,2.42
2023-05-10T16:23:45.367Z,2.70
2023-05-10T16:26:13.733Z,3.05
2023-05-10T16:28:42.683Z,2.67
2023-05-10T16:31:09.908Z,3.03
2023-05-10T16:33:38.989Z,2.92
2023-05-10T16:36:06.652Z,2.78
2023-05-10T16:38:34.637Z,3.20
2023-05-10T16:41:04.995Z,3.25
2023-05-10T16:43:33.085Z,3.03
2023-05-10T16:46:01.154Z,2.78
2023-05-10T16:48:28.106Z,3.30
2023-05-10T16:50:55.432Z,3.00
2023-05-10T16:53:24.237Z,3.42
2023-05-10T16:55:51.147Z,2.63
2023-05-10T16:58:18.984Z,2.92
2023-05-10T17:00:46.871Z,3.00
2023-05-10T17:03:14.457Z,3.00
2023-05-10T17:05:42.421Z,2.97
2023-05-10T17:08:10.885Z,3.90
2023-05-10T17:10:40.251Z,3.88
2023-05-10T17:13:09.356Z,3.05
2023-05-10T17:15:38.672Z,3.40
2023-05-10T17:18:14.434Z,3.55
2023-05-10T17:20:46.060Z,3.03
2023-05-10T17:23:13.974Z,2.95
2023-05-10T17:25:42.500Z,2.95
2023-05-10T17:28:09.392Z,3.03
2023-05-10T17:30:36.363Z,6.90
2023-05-10T17:33:06.779Z,3.53
2023-05-10T17:35:34.896Z,3.13
2023-05-10T17:38:01.935Z,3.15
2023-05-10T17:40:36.549Z,3.33
2023-05-10T17:43:04.527Z,3.00
2023-05-10T17:45:32.412Z,3.38
2023-05-10T17:48:00.261Z,3.08
2023-05-10T17:50:27.179Z,3.45
2023-05-10T17:52:54.586Z,3.13
2023-05-10T17:55:23.814Z,3.30
2023-05-10T17:57:52.059Z,3.30
2023-05-10T18:00:20.094Z,3.45
2023-05-10T18:02:47.467Z,3.17
2023-05-10T18:05:14.642Z,3.03
2023-05-10T18:07:41.624Z,3.40
2023-05-10T18:10:09.173Z,2.97
2023-05-10T18:12:36.051Z,2.80
2023-05-10T18:15:05.729Z,3.20
2023-05-10T18:17:35.818Z,2.65
2023-05-10T18:20:04.854Z,3.08
2023-05-10T18:22:31.983Z,2.97
2023-05-10T18:24:59.314Z,3.42
2023-05-10T18:27:27.196Z,2.88
2023-05-10T18:29:54.265Z,3.65
2023-05-10T18:32:21.429Z,3.22
2023-05-10T18:34:48.982Z,3.13
2023-05-10T18:37:16.711Z,3.15
2023-05-10T18:39:44.257Z,3.28
2023-05-10T18:42:11.205Z,4.10
2023-05-10T18:44:38.701Z,3.38
2023-05-10T18:47:05.612Z,3.60
2023-05-10T18:49:33.026Z,3.33
2023-05-10T18:52:00.333Z,3.83
2023-05-10T18:54:27.497Z,2.88
2023-05-10T18:56:54.659Z,3.83
2023-05-10T18:59:25.354Z,3.30
2023-05-10T19:01:57.102Z,3.38
2023-05-10T19:04:25.354Z,4.32
2023-05-10T19:06:53.047Z,3.35
2023-05-10T19:09:21.375Z,3.30
2023-05-10T19:11:48.998Z,3.20
2023-05-10T19:14:16.493Z,3.25
2023-05-10T19:16:44.066Z,4.13
2023-05-10T19:19:14.587Z,4.00
2023-05-10T19:21:42.570Z,4.18
2023-05-10T19:24:12.683Z,4.30
2023-05-10T19:26:39.809Z,4.10
2023-05-10T19:29:07.088Z,4.43
2023-05-10T19:31:37.329Z,3.45
2023-05-10T19:34:05.464Z,3.88
2023-05-10T19:36:34.294Z,3.92
2023-05-10T19:39:01.064Z,4.00
2023-05-10T19:41:27.810Z,3.70
2023-05-10T19:43:55.653Z,4.60
2023-05-10T19:46:23.959Z,3.90
2023-05-10T19:48:52.952Z,4.88
2023-05-10T19:51:20.343Z,4.13
2023-05-10T19:53:48.372Z,3.70
2023-05-10T19:56:15.236Z,4.75
2023-05-10T19:58:43.336Z,4.10
2023-05-10T20:01:10.047Z,4.00
2023-05-10T20:03:37.391Z,3.60
2023-05-10T20:06:04.469Z,4.05
2023-05-10T20:08:31.562Z,3.65
2023-05-10T20:11:02.757Z,4.30
2023-05-10T20:13:30.053Z,3.70
2023-05-10T20:15:58.184Z,3.70
2023-05-10T20:18:26.186Z,3.60
2023-05-10T20:20:55.031Z,4.10
2023-05-10T20:23:22.385Z,4.70
2023-05-10T20:25:49.185Z,3.80
2023-05-10T20:28:16.082Z,4.20
2023-05-10T20:30:43.025Z,4.47
2023-05-10T20:33:09.857Z,3.58
2023-05-10T20:35:36.890Z,3.70
2023-05-10T20:38:05.302Z,3.80
2023-05-10T20:40:31.986Z,4.15
2023-05-10T20:42:58.875Z,4.03
2023-05-10T20:45:25.567Z,4.05
2023-05-10T20:47:53.577Z,3.97
2023-05-10T20:50:20.647Z,3.97
2023-05-10T20:52:47.528Z,4.72
2023-05-10T20:55:14.536Z,4.03
2023-05-10T20:57:41.262Z,4.95
2023-05-10T21:00:10.023Z,4.07
2023-05-10T21:02:36.999Z,4.18
2023-05-10T21:05:04.020Z,4.13
2023-05-10T21:07:33.261Z,3.97
2023-05-10T21:09:59.983Z,4.40
2023-05-10T21:12:26.736Z,4.22
2023-05-10T21:14:53.482Z,4.53
2023-05-10T21:17:20.433Z,3.65
2023-05-10T21:19:47.184Z,4.63
2023-05-10T21:22:13.952Z,4.45
2023-05-10T21:24:41.875Z,4.50
2023-05-10T21:27:10.056Z,4.00
2023-05-10T21:29:36.859Z,4.47
2023-05-10T21:32:03.691Z,4.13
2023-05-10T21:34:31.157Z,3.97
2023-05-10T21:36:57.895Z,4.35
2023-05-10T21:39:24.881Z,4.60
2023-05-10T21:41:51.637Z,4.85
2023-05-10T21:44:18.689Z,5.07
2023-05-10T21:46:46.507Z,4.25
2023-05-10T21:49:13.464Z,5.05
2023-05-10T21:51:40.128Z,4.00
2023-05-10T21:54:07.305Z,4.50
2023-05-10T21:56:34.035Z,4.05
2023-05-10T21:59:00.786Z,4.75
2023-05-10T22:01:27.492Z,5.07
2023-05-10T22:03:54.304Z,4.30
2023-05-10T22:06:20.988Z,4.50
2023-05-10T22:08:47.693Z,4.32
2023-05-10T22:11:14.403Z,4.45
2023-05-10T22:13:41.140Z,4.45
2023-05-10T22:16:07.831Z,5.13
2023-05-10T22:18:34.847Z,5.07
2023-05-10T22:21:01.614Z,5.18
2023-05-10T22:23:28.981Z,5.22
2023-05-10T22:26:00.802Z,5.25
2023-05-10T22:28:27.456Z,5.28
2023-05-10T22:30:54.316Z,5.35
2023-05-10T22:33:21.345Z,4.82
2023-05-10T22:35:49.365Z,4.97
2023-05-10T22:38:17.784Z,4.50
2023-05-10T22:40:44.584Z,4.80
2023-05-10T22:43:11.275Z,5.43
2023-05-10T22:45:38.139Z,5.05
2023-05-10T22:48:05.359Z,5.32
2023-05-10T22:50:32.186Z,4.80
2023-05-10T22:53:00.156Z,5.20
2023-05-10T22:55:26.922Z,6.07
2023-05-10T22:57:54.085Z,5.00
2023-05-10T23:00:21.147Z,5.22
2023-05-10T23:02:48.112Z,4.93
2023-05-10T23:05:14.844Z,5.07
2023-05-10T23:10:44.478Z,5.18
2023-05-10T23:13:11.156Z,4.95
2023-05-10T23:15:38.287Z,5.03
2023-05-10T23:18:06.036Z,5.22
2023-05-10T23:20:33.353Z,5.00
2023-05-10T23:23:00.043Z,4.70
2023-05-10T23:25:26.763Z,4.78
2023-05-10T23:27:53.527Z,5.20
2023-05-10T23:30:20.419Z,4.95
2023-05-10T23:32:47.164Z,5.28
2023-05-10T23:35:13.873Z,4.90
2023-05-10T23:37:42.393Z,4.53
2023-05-10T23:40:09.752Z,5.30
2023-05-10T23:42:36.458Z,5.97
2023-05-10T23:45:03.280Z,5.18
2023-05-10T23:47:32.067Z,5.03
2023-05-10T23:49:58.909Z,5.03
2023-05-10T23:52:25.715Z,5.43
2023-05-10T23:54:54.243Z,5.03
2023-05-10T23:57:20.901Z,6.50
2023-05-10T23:59:47.758Z,5.90
